WZZ4KM EPWA-EBBR
Flight info
| Callsign | WZZ4KM |
|---|---|
| Flight time | N/A |
| Altitude | 38000 |
| Route | LOLSI DCT DIBLO DCT INDIG DCT GOVEN DCT MAG DCT TOLGI DCT ABAMI Z717 NEREL/N0357F240 T855 AGENI/N0329F180 T855 BATTY |
| Aircraft | A20N/M-SDE2E3FGHIRWXY/LB1 |
Departure
| Time | 2026-05-06 08:27 |
|---|---|
| Airport | Warsaw Chopin Airport (EPWA) |
Arrival
| Time | N/A |
|---|---|
| Airport | Brussels Airport (EBBR) |
| Time | Latitude | Longitude | Altitude | Speed | Heading |
|---|---|---|---|---|---|
| 2026-05-06 08:09 | 52.16816 | 20.97313 | 363 ft | 0 kts | 74° |
| 2026-05-06 08:20 | 52.16812 | 20.97294 | 336 ft | 2 kts | 76° |
| 2026-05-06 08:21 | 52.16808 | 20.97268 | 332 ft | 2 kts | 75° |
| 2026-05-06 08:21 | 52.16804 | 20.97242 | 331 ft | 2 kts | 77° |
| 2026-05-06 08:21 | 52.16801 | 20.97215 | 331 ft | 2 kts | 80° |
| 2026-05-06 08:21 | 52.16798 | 20.97189 | 332 ft | 2 kts | 87° |
| 2026-05-06 08:22 | 52.16800 | 20.97162 | 332 ft | 2 kts | 121° |
| 2026-05-06 08:22 | 52.16808 | 20.97149 | 331 ft | 1 kts | 152° |
| 2026-05-06 08:23 | 52.16791 | 20.97164 | 332 ft | 9 kts | 152° |
| 2026-05-06 08:23 | 52.16708 | 20.97237 | 334 ft | 17 kts | 152° |
| 2026-05-06 08:23 | 52.16595 | 20.97337 | 333 ft | 20 kts | 147° |
| 2026-05-06 08:24 | 52.16530 | 20.97528 | 333 ft | 21 kts | 115° |
| 2026-05-06 08:24 | 52.16467 | 20.97750 | 335 ft | 22 kts | 115° |
| 2026-05-06 08:24 | 52.16399 | 20.97989 | 332 ft | 24 kts | 116° |
| 2026-05-06 08:24 | 52.16326 | 20.98244 | 332 ft | 26 kts | 115° |
| 2026-05-06 08:25 | 52.16250 | 20.98331 | 336 ft | 9 kts | 201° |
| 2026-05-06 08:25 | 52.16184 | 20.98281 | 331 ft | 12 kts | 212° |
| 2026-05-06 08:25 | 52.16151 | 20.98193 | 333 ft | 1 kts | 303° |
| 2026-05-06 08:25 | 52.16173 | 20.98145 | 333 ft | 12 kts | 307° |
| 2026-05-06 08:26 | 52.16204 | 20.98001 | 333 ft | 15 kts | 297° |
| 2026-05-06 08:26 | 52.16345 | 20.97530 | 334 ft | 81 kts | 295° |
| 2026-05-06 08:26 | 52.16664 | 20.96395 | 338 ft | 137 kts | 295° |
| 2026-05-06 08:26 | 52.17105 | 20.94819 | 563 ft | 163 kts | 294° |
| 2026-05-06 08:27 | 52.17622 | 20.93188 | 1078 ft | 162 kts | 295° |
| 2026-05-06 08:27 | 52.18122 | 20.91525 | 1850 ft | 165 kts | 290° |
| 2026-05-06 08:27 | 52.18474 | 20.89726 | 2644 ft | 171 kts | 269° |
| 2026-05-06 08:27 | 52.18333 | 20.87774 | 3342 ft | 180 kts | 255° |
| 2026-05-06 08:28 | 52.18068 | 20.85687 | 3978 ft | 197 kts | 253° |
| 2026-05-06 08:28 | 52.17851 | 20.83384 | 4586 ft | 215 kts | 264° |
| 2026-05-06 08:28 | 52.18185 | 20.80962 | 5269 ft | 228 kts | 288° |
| 2026-05-06 08:28 | 52.18980 | 20.78669 | 5871 ft | 235 kts | 290° |
| 2026-05-06 08:29 | 52.19458 | 20.76072 | 6211 ft | 254 kts | 274° |
| 2026-05-06 08:29 | 52.19710 | 20.73077 | 6502 ft | 272 kts | 270° |